createdAt,value
2022-09-18T00:01:10.847Z,99.02
2022-09-18T00:03:38.918Z,98.85
2022-09-18T00:06:09.186Z,99.34
2022-09-18T00:08:38.513Z,99.29
2022-09-18T00:11:07.689Z,99.89
2022-09-18T00:13:37.796Z,98.57
2022-09-18T00:16:06.211Z,99.17
2022-09-18T00:18:34.348Z,98.75
2022-09-18T00:21:05.304Z,98.63
2022-09-18T00:23:33.179Z,97.79
2022-09-18T00:26:00.879Z,97.92
2022-09-18T00:28:29.147Z,98.75
2022-09-18T00:31:04.726Z,98.50
2022-09-18T00:33:32.932Z,98.56
2022-09-18T00:36:05.220Z,99.39
2022-09-18T00:38:33.171Z,99.93
2022-09-18T00:41:02.199Z,99.59
2022-09-18T00:43:32.372Z,98.99
2022-09-18T00:46:04.233Z,98.46
2022-09-18T00:48:40.386Z,98.93
2022-09-18T00:51:08.321Z,98.01
2022-09-18T00:53:38.007Z,98.05
2022-09-18T00:56:08.246Z,98.34
2022-09-18T00:58:36.763Z,98.34
2022-09-18T01:01:07.420Z,97.71
2022-09-18T01:03:35.956Z,97.40
2022-09-18T01:06:12.349Z,97.13
2022-09-18T01:08:49.913Z,97.30
2022-09-18T01:11:32.025Z,97.05
2022-09-18T01:14:11.162Z,97.63
2022-09-18T01:16:50.868Z,96.83
2022-09-18T01:19:42.705Z,96.91
2022-09-18T01:22:23.543Z,96.73
2022-09-18T01:25:06.557Z,96.48
2022-09-18T01:27:40.350Z,96.44
2022-09-18T01:30:12.288Z,96.33
2022-09-18T01:32:44.763Z,95.63
2022-09-18T01:35:40.060Z,95.79
2022-09-18T01:38:12.500Z,95.30
2022-09-18T01:40:45.179Z,94.73
2022-09-18T01:43:17.210Z,94.57
2022-09-18T01:45:49.457Z,94.40
2022-09-18T01:48:27.583Z,95.22
2022-09-18T01:51:01.283Z,94.96
2022-09-18T01:53:33.866Z,95.10
2022-09-18T01:56:07.244Z,95.76
2022-09-18T01:58:36.398Z,95.97
2022-09-18T02:01:13.150Z,96.48
2022-09-18T02:03:45.543Z,97.06
2022-09-18T02:06:20.112Z,97.06
2022-09-18T02:08:51.658Z,96.74
2022-09-18T02:11:23.666Z,96.81
2022-09-18T02:13:55.840Z,96.85
2022-09-18T02:16:37.635Z,96.92
2022-09-18T02:19:08.967Z,97.76
2022-09-18T02:21:38.064Z,97.22
2022-09-18T02:24:10.005Z,97.46
2022-09-18T02:26:41.848Z,98.38
2022-09-18T02:29:12.652Z,97.96
2022-09-18T02:31:42.346Z,97.19
2022-09-18T02:34:12.496Z,96.96
2022-09-18T02:36:54.942Z,96.85
2022-09-18T02:39:36.153Z,96.60
2022-09-18T02:42:17.053Z,96.84
2022-09-18T02:44:53.642Z,95.89
2022-09-18T02:47:36.721Z,95.24
2022-09-18T02:50:12.987Z,95.35
2022-09-18T02:52:46.690Z,95.22
2022-09-18T02:55:18.386Z,95.47
2022-09-18T02:57:50.350Z,95.57
2022-09-18T03:00:18.847Z,95.30
2022-09-18T03:02:51.737Z,95.31
2022-09-18T03:05:36.483Z,93.91
2022-09-18T03:08:04.225Z,94.51
2022-09-18T03:10:32.867Z,94.22
2022-09-18T03:13:01.251Z,94.24
2022-09-18T03:15:29.181Z,94.72
2022-09-18T03:17:59.443Z,95.24
2022-09-18T03:20:27.350Z,95.41
2022-09-18T03:22:55.175Z,95.37
2022-09-18T03:25:23.143Z,95.77
2022-09-18T03:27:55.053Z,95.33
2022-09-18T03:30:30.283Z,96.08
2022-09-18T03:32:59.432Z,96.70
2022-09-18T03:35:28.381Z,96.70
2022-09-18T03:37:56.288Z,96.86
2022-09-18T03:40:27.098Z,97.67
2022-09-18T03:42:56.260Z,97.76
2022-09-18T03:45:26.347Z,97.02
2022-09-18T03:47:55.220Z,96.75
2022-09-18T03:50:26.640Z,97.43
2022-09-18T03:52:54.456Z,97.84
2022-09-18T03:55:46.826Z,98.30
2022-09-18T03:58:32.933Z,99.00
2022-09-18T04:01:14.841Z,99.42
2022-09-18T04:04:14.982Z,98.76
2022-09-18T04:06:46.921Z,100.00
2022-09-18T04:09:50.210Z,100.00
2022-09-18T04:12:18.117Z,100.00
2022-09-18T04:14:50.959Z,100.00
2022-09-18T04:17:19.371Z,100.00
2022-09-18T04:19:51.354Z,100.00
2022-09-18T04:22:22.682Z,100.00
2022-09-18T04:24:51.308Z,100.00
2022-09-18T04:27:19.038Z,100.00
2022-09-18T04:29:49.909Z,100.00
2022-09-18T04:32:19.384Z,100.00
2022-09-18T04:34:47.725Z,99.87
2022-09-18T04:37:15.636Z,99.95
2022-09-18T04:39:46.962Z,99.99
2022-09-18T04:42:15.563Z,99.72
2022-09-18T04:44:45.753Z,100.00
2022-09-18T04:47:13.876Z,99.67
2022-09-18T04:49:41.584Z,100.00
2022-09-18T04:52:09.654Z,99.97
2022-09-18T04:54:37.991Z,99.96
2022-09-18T04:57:07.560Z,100.00
2022-09-18T04:59:36.773Z,100.00
2022-09-18T05:02:06.577Z,99.75
2022-09-18T05:04:36.059Z,99.38
2022-09-18T05:07:11.557Z,98.66
2022-09-18T05:09:39.951Z,98.26
2022-09-18T05:12:10.955Z,97.96
2022-09-18T05:14:40.886Z,98.19
2022-09-18T05:17:11.268Z,97.82
2022-09-18T05:19:42.116Z,97.13
2022-09-18T05:22:22.310Z,96.59
2022-09-18T05:24:52.324Z,96.36
2022-09-18T05:27:26.142Z,97.30
2022-09-18T05:29:55.418Z,96.87
2022-09-18T05:32:34.564Z,97.35
2022-09-18T05:35:02.266Z,96.87
2022-09-18T05:37:29.983Z,97.38
2022-09-18T05:39:57.816Z,97.28
2022-09-18T05:42:26.843Z,97.12
2022-09-18T05:44:57.572Z,97.39
2022-09-18T05:47:28.373Z,97.14
2022-09-18T05:49:56.074Z,97.16
2022-09-18T05:52:25.399Z,97.21
2022-09-18T05:54:54.004Z,97.41
2022-09-18T05:57:22.113Z,97.89
2022-09-18T05:59:52.501Z,97.67
2022-09-18T06:02:20.530Z,97.43
2022-09-18T06:05:02.750Z,98.52
2022-09-18T06:07:30.504Z,98.23
2022-09-18T06:09:59.148Z,98.91
2022-09-18T06:12:28.088Z,99.46
2022-09-18T06:14:57.166Z,99.46
2022-09-18T06:17:25.981Z,99.27
2022-09-18T06:19:56.610Z,99.20
2022-09-18T06:22:25.719Z,98.97
2022-09-18T06:24:54.333Z,99.47
2022-09-18T06:27:29.600Z,98.53
2022-09-18T06:29:58.933Z,97.98
2022-09-18T06:32:31.485Z,97.59
2022-09-18T06:34:59.212Z,95.59
2022-09-18T06:37:27.565Z,94.77
2022-09-18T06:40:07.897Z,95.10
2022-09-18T06:42:57.494Z,94.20
2022-09-18T06:45:54.100Z,93.55
2022-09-18T06:48:24.628Z,92.69
2022-09-18T06:50:53.694Z,92.81
2022-09-18T06:53:23.717Z,94.57
2022-09-18T06:56:00.280Z,96.75
2022-09-18T06:58:28.224Z,96.31
2022-09-18T07:01:00.753Z,97.99
2022-09-18T07:03:34.947Z,98.70
2022-09-18T07:06:17.947Z,98.79
2022-09-18T07:08:48.800Z,98.72
2022-09-18T07:11:27.622Z,98.82
2022-09-18T07:13:55.430Z,98.08
2022-09-18T07:16:24.712Z,97.95
2022-09-18T07:18:53.841Z,97.44
2022-09-18T07:21:22.010Z,98.25
2022-09-18T07:23:49.779Z,97.99
2022-09-18T07:26:19.052Z,98.74
2022-09-18T07:28:48.319Z,97.95
2022-09-18T07:31:21.040Z,97.10
2022-09-18T07:33:53.509Z,96.05
2022-09-18T07:36:23.839Z,94.97
2022-09-18T07:38:52.518Z,92.70
2022-09-18T07:41:21.591Z,91.41
2022-09-18T07:43:51.205Z,90.27
2022-09-18T07:46:19.726Z,89.36
2022-09-18T07:48:50.131Z,88.92
2022-09-18T07:51:26.459Z,87.42
2022-09-18T07:53:56.119Z,89.48
2022-09-18T07:56:46.585Z,93.49
2022-09-18T07:59:17.472Z,97.49
2022-09-18T08:01:47.228Z,100.00
2022-09-18T08:04:15.653Z,100.00
2022-09-18T08:07:20.020Z,100.00
2022-09-18T08:10:11.953Z,100.00
2022-09-18T08:12:54.833Z,100.00
2022-09-18T08:15:33.168Z,100.00
2022-09-18T08:18:14.020Z,100.00
2022-09-18T08:21:07.338Z,100.00
2022-09-18T08:23:44.686Z,99.52
2022-09-18T08:26:12.454Z,99.99
2022-09-18T08:28:40.271Z,97.10
2022-09-18T08:31:08.270Z,95.42
2022-09-18T08:33:36.095Z,93.86
2022-09-18T08:36:04.314Z,93.43
2022-09-18T08:38:35.282Z,91.96
2022-09-18T08:41:58.774Z,89.67
2022-09-18T08:44:29.927Z,88.34
2022-09-18T08:47:06.767Z,88.45
2022-09-18T08:49:39.079Z,89.03
2022-09-18T08:52:15.123Z,88.28
2022-09-18T08:54:51.413Z,87.18
2022-09-18T08:57:44.446Z,88.37
2022-09-18T09:00:20.528Z,86.71
2022-09-18T09:03:11.767Z,86.99
2022-09-18T09:05:47.607Z,85.59
2022-09-18T09:08:29.954Z,84.36
2022-09-18T09:11:11.031Z,83.10
2022-09-18T09:13:57.905Z,84.36
2022-09-18T09:16:35.570Z,83.28
2022-09-18T09:19:14.410Z,82.53
2022-09-18T09:21:52.399Z,82.88
2022-09-18T09:24:32.464Z,84.37
2022-09-18T09:27:19.425Z,84.39
2022-09-18T09:30:17.460Z,83.13
2022-09-18T09:33:13.269Z,84.90
2022-09-18T09:36:05.581Z,83.19
2022-09-18T09:38:49.783Z,82.16
2022-09-18T09:41:25.549Z,81.71
2022-09-18T09:44:01.807Z,79.51
2022-09-18T09:46:48.323Z,77.33
2022-09-18T09:49:21.169Z,74.83
2022-09-18T09:51:58.068Z,76.39
2022-09-18T09:54:26.332Z,75.80
2022-09-18T09:57:03.985Z,75.50
2022-09-18T09:59:42.140Z,75.05
2022-09-18T10:02:33.763Z,75.67
2022-09-18T10:05:11.216Z,77.05
2022-09-18T10:07:47.620Z,76.82
2022-09-18T10:10:23.030Z,75.47
2022-09-18T10:12:54.726Z,73.68
2022-09-18T10:15:33.843Z,73.99
2022-09-18T10:18:07.440Z,74.48
2022-09-18T10:20:37.660Z,74.24
2022-09-18T10:23:13.375Z,73.03
2022-09-18T10:25:47.607Z,72.39
2022-09-18T10:28:17.036Z,71.10
2022-09-18T10:30:55.108Z,70.27
2022-09-18T10:33:39.954Z,70.86
2022-09-18T10:36:21.324Z,71.43
2022-09-18T10:38:50.267Z,70.27
2022-09-18T10:41:34.991Z,70.08
2022-09-18T10:44:17.169Z,69.96
2022-09-18T10:46:53.648Z,70.36
2022-09-18T10:49:26.107Z,68.90
2022-09-18T10:52:21.065Z,70.55
2022-09-18T10:55:00.558Z,71.55
2022-09-18T10:57:31.402Z,72.00
2022-09-18T11:00:03.945Z,71.82
2022-09-18T11:02:40.524Z,71.40
2022-09-18T11:05:18.915Z,70.58
2022-09-18T11:07:49.817Z,70.02
2022-09-18T11:10:19.562Z,68.60
2022-09-18T11:12:54.895Z,68.88
2022-09-18T11:15:33.748Z,68.61
2022-09-18T11:18:04.925Z,69.54
2022-09-18T11:20:43.166Z,68.77
2022-09-18T11:23:17.577Z,68.31
2022-09-18T11:25:47.092Z,68.25
2022-09-18T11:28:28.468Z,68.31
2022-09-18T11:31:01.512Z,67.57
2022-09-18T11:33:37.165Z,66.84
2022-09-18T11:36:10.075Z,66.15
2022-09-18T11:38:41.806Z,66.21
2022-09-18T11:41:10.988Z,65.21
2022-09-18T11:43:45.054Z,65.19
2022-09-18T11:46:23.531Z,64.59
2022-09-18T11:49:01.291Z,65.25
2022-09-18T11:51:41.298Z,66.00
2022-09-18T11:54:14.359Z,66.13
2022-09-18T11:56:47.601Z,65.99
2022-09-18T11:59:25.822Z,67.19
2022-09-18T12:01:57.908Z,67.71
2022-09-18T12:04:36.762Z,67.34
2022-09-18T12:07:16.036Z,67.68
2022-09-18T12:09:53.845Z,69.70
2022-09-18T12:12:29.544Z,70.90
2022-09-18T12:15:04.425Z,71.49
2022-09-18T12:17:41.161Z,72.50
2022-09-18T12:20:16.479Z,69.85
2022-09-18T12:22:49.316Z,63.30
2022-09-18T12:25:18.523Z,63.22
2022-09-18T12:28:22.142Z,63.96
2022-09-18T12:30:58.609Z,63.99
2022-09-18T12:33:37.497Z,64.82
2022-09-18T12:36:37.397Z,64.74
2022-09-18T12:39:29.126Z,65.45
2022-09-18T12:42:08.019Z,65.12
2022-09-18T12:44:55.565Z,64.25
2022-09-18T12:47:35.196Z,65.28
2022-09-18T12:50:24.641Z,64.83
2022-09-18T12:53:09.958Z,65.76
2022-09-18T12:55:56.577Z,62.83
2022-09-18T12:59:03.280Z,63.02
2022-09-18T13:01:35.160Z,64.00
2022-09-18T13:04:09.733Z,64.30
2022-09-18T13:06:43.561Z,64.61
2022-09-18T13:09:22.763Z,64.41
2022-09-18T13:11:58.613Z,65.40
2022-09-18T13:14:29.818Z,65.63
2022-09-18T13:17:06.366Z,65.00
2022-09-18T13:19:38.990Z,65.76
2022-09-18T13:22:12.023Z,66.13
2022-09-18T13:24:42.372Z,65.71
2022-09-18T13:27:14.642Z,65.90
2022-09-18T13:29:58.883Z,66.42
2022-09-18T13:32:39.292Z,66.39
2022-09-18T13:35:20.505Z,66.53
2022-09-18T13:37:49.421Z,65.56
2022-09-18T13:40:33.163Z,65.59
2022-09-18T13:43:16.560Z,64.34
2022-09-18T13:45:44.370Z,64.22
2022-09-18T13:48:21.455Z,63.26
2022-09-18T13:50:53.617Z,62.59
2022-09-18T13:53:33.398Z,63.04
2022-09-18T13:56:01.499Z,61.94
2022-09-18T13:58:55.969Z,62.59
2022-09-18T14:01:59.618Z,63.98
2022-09-18T14:04:59.176Z,65.34
2022-09-18T14:07:54.457Z,65.42
2022-09-18T14:10:25.956Z,64.55
2022-09-18T14:13:40.168Z,64.25
2022-09-18T14:16:29.803Z,66.93
2022-09-18T14:19:03.307Z,65.88
2022-09-18T14:21:33.178Z,67.27
2022-09-18T14:24:07.523Z,70.70
2022-09-18T14:26:57.800Z,76.56
2022-09-18T14:29:29.846Z,79.96
2022-09-18T14:32:01.237Z,83.03
2022-09-18T14:34:37.557Z,85.30
2022-09-18T14:37:24.408Z,89.13
2022-09-18T14:39:54.008Z,91.63
2022-09-18T14:42:32.583Z,92.14
2022-09-18T14:45:09.921Z,93.24
2022-09-18T14:47:39.717Z,94.37
2022-09-18T14:50:24.133Z,94.74
2022-09-18T14:52:52.084Z,94.08
2022-09-18T14:55:22.679Z,94.01
2022-09-18T14:57:53.275Z,94.44
2022-09-18T15:00:25.392Z,93.98
2022-09-18T15:02:58.305Z,94.05
2022-09-18T15:05:28.832Z,91.21
2022-09-18T15:08:01.981Z,83.92
2022-09-18T15:10:30.618Z,82.13
2022-09-18T15:12:59.550Z,79.80
2022-09-18T15:15:34.086Z,77.09
2022-09-18T15:18:04.144Z,75.22
2022-09-18T15:20:34.883Z,74.57
2022-09-18T15:23:18.610Z,74.37
2022-09-18T15:25:49.860Z,71.55
2022-09-18T15:28:20.670Z,71.10
2022-09-18T15:30:49.190Z,71.44
2022-09-18T15:33:21.149Z,72.00
2022-09-18T15:35:53.352Z,71.22
2022-09-18T15:38:24.077Z,70.43
2022-09-18T15:40:53.381Z,71.09
2022-09-18T15:43:50.286Z,72.48
2022-09-18T15:46:27.128Z,74.15
2022-09-18T15:48:59.425Z,75.54
2022-09-18T15:51:31.770Z,76.78
2022-09-18T15:54:09.604Z,78.52
2022-09-18T15:56:40.535Z,81.08
2022-09-18T15:59:20.312Z,83.28
2022-09-18T16:01:49.389Z,86.87
2022-09-18T16:04:21.205Z,88.19
2022-09-18T16:06:56.810Z,88.24
2022-09-18T16:09:33.816Z,88.95
2022-09-18T16:12:35.997Z,90.16
2022-09-18T16:15:22.987Z,90.62
2022-09-18T16:18:04.413Z,89.43
2022-09-18T16:20:36.832Z,88.13
2022-09-18T16:23:19.658Z,84.93
2022-09-18T16:26:03.815Z,83.89
2022-09-18T16:28:34.035Z,80.50
2022-09-18T16:31:01.945Z,79.95
2022-09-18T16:33:31.874Z,78.22
2022-09-18T16:36:05.730Z,78.47
2022-09-18T16:38:33.485Z,78.08
2022-09-18T16:41:01.470Z,79.14
2022-09-18T16:43:29.972Z,78.71
2022-09-18T16:45:57.773Z,78.51
2022-09-18T16:48:25.971Z,78.95
2022-09-18T16:50:53.825Z,78.52
2022-09-18T16:53:23.136Z,79.25
2022-09-18T16:55:54.480Z,79.92
2022-09-18T16:58:23.572Z,81.73
2022-09-18T17:00:51.965Z,82.17
2022-09-18T17:03:20.553Z,83.04
2022-09-18T17:05:48.389Z,83.26
2022-09-18T17:08:16.158Z,85.87
2022-09-18T17:10:45.502Z,87.85
2022-09-18T17:13:13.802Z,90.80
2022-09-18T17:15:41.580Z,92.79
2022-09-18T17:18:09.599Z,94.98
2022-09-18T17:20:37.716Z,97.07
2022-09-18T17:23:05.528Z,97.70
2022-09-18T17:25:33.722Z,99.13
2022-09-18T17:28:03.168Z,98.91
2022-09-18T17:30:31.008Z,99.91
2022-09-18T17:32:59.104Z,98.59
2022-09-18T17:35:27.672Z,98.18
2022-09-18T17:37:55.520Z,97.70
2022-09-18T17:40:23.393Z,96.36
2022-09-18T17:42:51.229Z,96.48
2022-09-18T17:45:20.472Z,96.15
2022-09-18T17:47:51.911Z,94.92
2022-09-18T17:50:20.498Z,96.02
2022-09-18T17:52:48.425Z,94.84
2022-09-18T17:55:16.576Z,96.19
2022-09-18T17:57:44.611Z,95.92
2022-09-18T18:00:13.166Z,96.81
2022-09-18T18:02:45.207Z,97.84
2022-09-18T18:05:13.228Z,98.97
2022-09-18T18:07:41.146Z,98.93
2022-09-18T18:10:10.071Z,99.90
2022-09-18T18:12:37.870Z,100.00
2022-09-18T18:15:06.762Z,100.00
2022-09-18T18:17:35.944Z,100.00
2022-09-18T18:20:06.058Z,100.00
2022-09-18T18:22:36.191Z,100.00
2022-09-18T18:25:06.031Z,100.00
2022-09-18T18:27:34.181Z,100.00
2022-09-18T18:30:02.251Z,100.00
2022-09-18T18:32:30.100Z,100.00
2022-09-18T18:34:57.946Z,100.00
2022-09-18T18:37:27.334Z,100.00
2022-09-18T18:39:55.308Z,100.00
2022-09-18T18:42:23.298Z,100.00
2022-09-18T18:44:51.056Z,100.00
2022-09-18T18:47:20.418Z,100.00
2022-09-18T18:49:48.412Z,100.00
2022-09-18T18:52:16.855Z,100.00
2022-09-18T18:54:46.058Z,100.00
2022-09-18T18:57:14.085Z,100.00
2022-09-18T18:59:43.533Z,100.00
2022-09-18T19:02:12.082Z,100.00
2022-09-18T19:04:41.460Z,100.00
2022-09-18T19:07:09.599Z,100.00
2022-09-18T19:09:37.567Z,100.00
2022-09-18T19:12:06.961Z,100.00
2022-09-18T19:14:37.917Z,100.00
2022-09-18T19:17:05.767Z,100.00
2022-09-18T19:19:33.675Z,100.00
2022-09-18T19:22:01.719Z,100.00
2022-09-18T19:24:30.061Z,100.00
2022-09-18T19:26:58.854Z,100.00
2022-09-18T19:29:30.518Z,100.00
2022-09-18T19:31:58.567Z,100.00
2022-09-18T19:34:27.091Z,100.00
2022-09-18T19:36:54.909Z,100.00
2022-09-18T19:39:24.733Z,100.00
2022-09-18T19:41:58.037Z,100.00
2022-09-18T19:44:32.771Z,100.00
2022-09-18T19:47:03.360Z,100.00
2022-09-18T19:49:40.050Z,100.00
2022-09-18T19:52:17.916Z,100.00
2022-09-18T19:54:45.821Z,100.00
2022-09-18T19:57:14.016Z,100.00
2022-09-18T19:59:43.376Z,100.00
2022-09-18T20:02:14.150Z,100.00
2022-09-18T20:04:42.232Z,100.00
2022-09-18T20:07:10.769Z,100.00
2022-09-18T20:09:40.292Z,100.00
2022-09-18T20:12:08.959Z,100.00
2022-09-18T20:14:36.905Z,100.00
2022-09-18T20:17:06.262Z,100.00
2022-09-18T20:19:34.497Z,100.00
2022-09-18T20:22:02.963Z,100.00
2022-09-18T20:24:33.324Z,100.00
2022-09-18T20:27:02.002Z,100.00
2022-09-18T20:29:30.437Z,100.00
2022-09-18T20:31:58.624Z,100.00
2022-09-18T20:34:27.753Z,100.00
2022-09-18T20:36:55.618Z,100.00
2022-09-18T20:39:23.733Z,100.00
2022-09-18T20:41:51.757Z,100.00
2022-09-18T20:44:19.899Z,100.00
2022-09-18T20:46:50.248Z,100.00
2022-09-18T20:49:18.305Z,100.00
2022-09-18T20:51:47.476Z,100.00
2022-09-18T20:54:16.072Z,100.00
2022-09-18T20:56:44.604Z,100.00
2022-09-18T20:59:15.265Z,100.00
2022-09-18T21:01:44.054Z,100.00
2022-09-18T21:04:17.073Z,100.00
2022-09-18T21:06:49.485Z,100.00
2022-09-18T21:09:20.529Z,100.00
2022-09-18T21:11:51.417Z,100.00
2022-09-18T21:14:20.675Z,100.00
2022-09-18T21:16:48.898Z,100.00
2022-09-18T21:19:19.792Z,100.00
2022-09-18T21:21:49.707Z,100.00
2022-09-18T21:24:18.187Z,100.00
2022-09-18T21:26:47.895Z,100.00
2022-09-18T21:29:18.023Z,100.00
2022-09-18T21:31:47.210Z,100.00
2022-09-18T21:34:19.296Z,100.00
2022-09-18T21:36:47.043Z,100.00
2022-09-18T21:39:16.342Z,100.00
2022-09-18T21:41:46.464Z,100.00
2022-09-18T21:44:15.923Z,100.00
2022-09-18T21:46:45.825Z,100.00
2022-09-18T21:49:16.081Z,100.00
2022-09-18T21:51:44.792Z,100.00
2022-09-18T21:54:17.646Z,100.00
2022-09-18T21:56:46.315Z,100.00
2022-09-18T21:59:14.234Z,100.00
2022-09-18T22:01:43.506Z,100.00
2022-09-18T22:04:12.350Z,100.00
2022-09-18T22:06:42.307Z,100.00
2022-09-18T22:09:12.156Z,100.00
2022-09-18T22:11:42.601Z,100.00
2022-09-18T22:14:13.035Z,100.00
2022-09-18T22:16:42.959Z,100.00
2022-09-18T22:19:10.919Z,100.00
2022-09-18T22:21:40.346Z,100.00
2022-09-18T22:24:10.088Z,100.00
2022-09-18T22:26:39.798Z,100.00
2022-09-18T22:29:14.249Z,100.00
2022-09-18T22:31:42.115Z,100.00
2022-09-18T22:34:09.962Z,100.00
2022-09-18T22:36:37.747Z,100.00
2022-09-18T22:39:05.517Z,100.00
2022-09-18T22:41:33.305Z,100.00
2022-09-18T22:44:01.072Z,100.00
2022-09-18T22:46:30.215Z,100.00
2022-09-18T22:48:58.592Z,100.00
2022-09-18T22:51:28.109Z,100.00
2022-09-18T22:53:57.251Z,100.00
2022-09-18T22:56:26.759Z,100.00
2022-09-18T22:58:55.883Z,100.00
2022-09-18T23:01:25.799Z,100.00
2022-09-18T23:03:56.736Z,100.00
2022-09-18T23:06:26.611Z,100.00
2022-09-18T23:08:56.047Z,100.00
2022-09-18T23:11:25.740Z,100.00
2022-09-18T23:13:55.639Z,100.00
2022-09-18T23:16:27.543Z,100.00
2022-09-18T23:18:58.987Z,100.00
2022-09-18T23:21:28.657Z,100.00
2022-09-18T23:23:57.461Z,100.00
2022-09-18T23:26:27.751Z,100.00
2022-09-18T23:28:58.105Z,100.00
2022-09-18T23:31:28.122Z,100.00
2022-09-18T23:33:59.159Z,100.00
2022-09-18T23:36:28.950Z,100.00
2022-09-18T23:38:58.170Z,100.00
2022-09-18T23:41:27.278Z,100.00
2022-09-18T23:43:58.382Z,100.00
2022-09-18T23:46:26.126Z,100.00
2022-09-18T23:48:55.722Z,100.00
2022-09-18T23:51:26.344Z,100.00
2022-09-18T23:53:56.734Z,100.00
2022-09-18T23:56:25.223Z,100.00
2022-09-18T23:58:55.099Z,100.00
